Flight Track Log - Related Links

Times and Time Zones

All times are in EDT time to prevent confusion due to time zone crossing. See the VH-YEN flight status page for this flight to view local times or setup timezone preferences in your user account.

Time Position Orientation Groundspeed Altitude Reporting Facility
EDT Latitude Longitude Course Direction KTS MPH feet Rate Location/Type
Mon 09:02:45 PM -35.2861 149.1939 North 104 120 2,400  Level Aus ATC (RADAR)
Mon 09:03:20 PM -35.2690 149.1958 North 107 123 2,900 767 Climbing Aus ATC (RADAR)
Mon 09:04:11 PM -35.2439 149.2014 10° North 111 128 3,500 640 Climbing Aus ATC (RADAR)
Mon 09:04:35 PM -35.2322 149.2108 33° Northeast 119 137 3,700 606 Climbing Aus ATC (RADAR)
Mon 09:06:00 PM -35.1999 149.2637 53° Northeast 140 161 4,600 626 Climbing Aus ATC (RADAR)
Mon 09:06:30 PM -35.1847 149.2767 35° Northeast 135 155 4,900 655 Climbing Aus ATC (RADAR)
Mon 09:06:55 PM -35.1709 149.2864 30° Northeast 136 157 5,200 600 Climbing Aus ATC (RADAR)
Mon 09:07:30 PM -35.1515 149.3049 38° Northeast 146 168 5,500 600 Climbing Aus ATC (RADAR)
Mon 09:08:15 PM -35.1286 149.3244 35° Northeast 136 157 6,000 600 Climbing Aus ATC (RADAR)
Mon 09:08:50 PM -35.1085 149.3388 30° Northeast 140 161 6,300 565 Climbing Aus ATC (RADAR)
Mon 09:09:40 PM -35.0818 149.3607 34° Northeast 139 160 6,800 600 Climbing Aus ATC (RADAR)
Mon 09:10:00 PM -35.0714 149.3709 39° Northeast 141 162 7,000 491 Climbing Aus ATC (RADAR)
Mon 09:11:30 PM -35.0209 149.4061 30° Northeast 137 158 7,700 522 Climbing Aus ATC (RADAR)
Mon 09:11:55 PM -35.0087 149.4190 41° Northeast 139 160 8,000 646 Climbing Aus ATC (RADAR)
Mon 09:12:35 PM -34.9898 149.4434 47° Northeast 145 167 8,400 720 Climbing Aus ATC (RADAR)
Mon 09:13:10 PM -34.9711 149.4587 34° Northeast 138 159 8,900 560 Climbing Aus ATC (RADAR)
Mon 09:13:50 PM -34.9489 149.4695 22° Northeast 133 153 9,100 174 Climbing Aus ATC (RADAR)
Mon 09:14:19 PM -34.9314 149.4883 42° Northeast 158 182 9,100 -92 Level Aus ATC (RADAR)
Mon 09:14:55 PM -34.9072 149.5071 32° Northeast 172 198 9,000 -67 Descending Aus ATC (RADAR)
Mon 09:15:49 PM -34.8714 149.5379 35° Northeast 169 194 9,000 -61 Level Aus ATC (RADAR)
Mon 09:16:34 PM -34.8430 149.5618 35° Northeast 166 191 8,900 -75 Descending Aus ATC (RADAR)
Mon 09:17:09 PM -34.8207 149.5813 36° Northeast 168 193 8,900  Level Aus ATC (RADAR)
Mon 09:17:59 PM -34.7895 149.6063 33° Northeast 161 185 8,900  Level Aus ATC (RADAR)
Mon 09:18:36 PM -34.7682 149.6239 34° Northeast 158 182 8,900  Level Aus ATC (RADAR)
Mon 09:19:30 PM -34.7347 149.6515 34° Northeast 158 182 8,900  Level Aus ATC (RADAR)
Mon 09:19:45 PM -34.7256 149.6590 34° Northeast 157 181 8,900 71 Level Aus ATC (RADAR)
Mon 09:20:54 PM -34.6833 149.6942 34° Northeast 158 182 9,000 61 Climbing Aus ATC (RADAR)
Mon 09:21:24 PM -34.6648 149.7094 34° Northeast 160 184 9,000  Level Aus ATC (RADAR)
Mon 09:21:44 PM -34.6526 149.7201 36° Northeast 162 186 9,000  Level Aus ATC (RADAR)
Mon 09:22:19 PM -34.6301 149.7389 35° Northeast 166 191 9,000 -63 Level Aus ATC (RADAR)
Mon 09:23:19 PM -34.5914 149.7706 34° Northeast 167 192 8,900  Descending Aus ATC (RADAR)
Mon 09:23:54 PM -34.5691 149.7889 34° Northeast 165 190 9,000  Climbing Aus ATC (RADAR)
Mon 09:24:40 PM -34.5405 149.8126 34° Northeast 163 188 8,900  Descending Aus ATC (RADAR)
Mon 09:25:19 PM -34.5160 149.8324 34° Northeast 158 182 9,000 58 Climbing Aus ATC (RADAR)
Mon 09:26:23 PM -34.4758 149.8652 34° Northeast 162 186 9,000  Level Aus ATC (RADAR)
Mon 09:26:48 PM -34.4601 149.8784 35° Northeast 163 188 9,000  Level Aus ATC (RADAR)
Mon 09:27:23 PM -34.4378 149.8962 33° Northeast 164 189 9,000  Level Aus ATC (RADAR)
Mon 09:28:13 PM -34.4068 149.9223 35° Northeast 162 186 9,000  Level Aus ATC (RADAR)
Mon 09:28:48 PM -34.3854 149.9393 33° Northeast 157 181 9,000  Level Aus ATC (RADAR)
Mon 09:29:33 PM -34.3581 149.9612 33° Northeast 156 180 9,000  Level Aus ATC (RADAR)
Mon 09:30:13 PM -34.3335 149.9807 33° Northeast 159 183 9,000 -288 Level Aus ATC (RADAR)
Mon 09:31:38 PM -34.2763 150.0293 35° Northeast 166 191 8,400 -491 Descending Aus ATC (RADAR)
Mon 09:32:03 PM -34.2600 150.0415 32° Northeast 165 190 8,100 -800 Descending Aus ATC (RADAR)
Mon 09:32:38 PM -34.2359 150.0623 36° Northeast 180 207 7,600 -600 Descending Aus ATC (RADAR)
Mon 09:33:23 PM -34.2040 150.0890 35° Northeast 184 212 7,300 -450 Descending Aus ATC (RADAR)
Mon 09:33:58 PM -34.1784 150.1092 33° Northeast 186 214 7,000 -565 Descending Aus ATC (RADAR)
Mon 09:34:48 PM -34.1662 150.1613 74° East 193 222 6,500 -640 Descending Aus ATC (RADAR)
Mon 09:35:13 PM -34.1744 150.1879 110° East 195 224 6,200 -571 Descending Aus ATC (RADAR)
Mon 09:36:33 PM -34.1724 150.2708 88° East 178 205 5,500 -442 Descending Aus ATC (RADAR)
Mon 09:36:48 PM -34.1732 150.2864 94° East 180 207 5,500  Level Aus ATC (RADAR)
Mon 09:37:27 PM -34.1713 150.3266 87° East 174 200 5,500 -63 Level Aus ATC (RADAR)
Mon 09:38:23 PM -34.1701 150.3761 88° East 156 180 5,400 -66 Descending Aus ATC (RADAR)
Mon 09:38:58 PM -34.1695 150.4027 88° East 135 155 5,400 -71 Level Aus ATC (RADAR)
Mon 09:39:47 PM -34.1590 150.4340 68° East 117 135 5,300 -429 Descending Aus ATC (RADAR)
Mon 09:40:22 PM -34.1484 150.4558 60° Northeast 124 143 4,800 -565 Descending Aus ATC (RADAR)
Mon 09:41:12 PM -34.1336 150.4866 60° Northeast 120 138 4,500 -480 Descending Aus ATC (RADAR)
Mon 09:41:37 PM -34.1264 150.5010 59° Northeast 118 136 4,200 -700 Descending Aus ATC (RADAR)
Mon 09:42:12 PM -34.1166 150.5220 61° Northeast 118 136 3,800 -695 Descending Aus ATC (RADAR)
Mon 09:43:12 PM -34.0993 150.5568 59° Northeast 119 137 3,100 -632 Descending Aus ATC (RADAR)
Mon 09:43:47 PM -34.0897 150.5779 61° Northeast 119 137 2,800 -776 Descending Aus ATC (RADAR)
Mon 09:44:37 PM -34.0764 150.6077 62° Northeast 118 136 2,000 -846 Descending Aus ATC (RADAR)
Mon 09:45:05 PM -34.0690 150.6214 57° Northeast 114 131 1,700 -692 Descending Aus ATC (RADAR)
Mon 09:46:47 PM -34.0440 150.6722 59° Northeast 87 100 500 -694 Descending Aus ATC (RADAR)
Mon 09:47:06 PM -34.0410 150.6799 64° Northeast 76 87 300 -692 Descending Aus ATC (RADAR)
Mon 09:47:13 PM -34.0402 150.6817 64° Northeast 76 87 200 -857 Descending Aus ATC (RADAR)

Login

Don't have an account? Register now (free) for customized features, flight alerts, and more!